sensor_id;sensor_type;location;lat;lon;timestamp;P1;durP1;ratioP1;P2;durP2;ratioP2
15982;SDS011;14442;50.196;8.096;2023-04-01T00:01:56;0.53;;;0.50;;
15982;SDS011;14442;50.196;8.096;2023-04-01T00:04:23;1.27;;;0.70;;
15982;SDS011;14442;50.196;8.096;2023-04-01T00:06:50;3.30;;;0.50;;
15982;SDS011;14442;50.196;8.096;2023-04-01T00:09:17;0.60;;;0.50;;
15982;SDS011;14442;50.196;8.096;2023-04-01T00:11:44;3.87;;;3.67;;
15982;SDS011;14442;50.196;8.096;2023-04-01T00:14:11;3.43;;;2.20;;
15982;SDS011;14442;50.196;8.096;2023-04-01T00:16:38;2.97;;;2.03;;
15982;SDS011;14442;50.196;8.096;2023-04-01T00:19:06;4.30;;;1.80;;
15982;SDS011;14442;50.196;8.096;2023-04-01T00:21:33;3.40;;;2.00;;
15982;SDS011;14442;50.196;8.096;2023-04-01T00:24:00;1.90;;;1.80;;
15982;SDS011;14442;50.196;8.096;2023-04-01T00:26:27;3.07;;;1.80;;
15982;SDS011;14442;50.196;8.096;2023-04-01T00:28:53;2.17;;;1.97;;
15982;SDS011;14442;50.196;8.096;2023-04-01T00:31:20;1.87;;;1.70;;
15982;SDS011;14442;50.196;8.096;2023-04-01T00:33:47;1.57;;;1.47;;
15982;SDS011;14442;50.196;8.096;2023-04-01T00:36:16;2.07;;;1.57;;
15982;SDS011;14442;50.196;8.096;2023-04-01T00:38:44;1.33;;;1.23;;
15982;SDS011;14442;50.196;8.096;2023-04-01T00:41:12;1.40;;;1.30;;
15982;SDS011;14442;50.196;8.096;2023-04-01T00:43:40;1.80;;;1.70;;
15982;SDS011;14442;50.196;8.096;2023-04-01T00:46:07;3.70;;;1.30;;
15982;SDS011;14442;50.196;8.096;2023-04-01T00:48:35;1.33;;;1.23;;
15982;SDS011;14442;50.196;8.096;2023-04-01T00:51:05;1.43;;;1.33;;
15982;SDS011;14442;50.196;8.096;2023-04-01T00:53:38;1.23;;;1.13;;
15982;SDS011;14442;50.196;8.096;2023-04-01T00:56:10;1.23;;;1.13;;
15982;SDS011;14442;50.196;8.096;2023-04-01T00:58:40;1.97;;;1.10;;
15982;SDS011;14442;50.196;8.096;2023-04-01T01:01:10;2.13;;;1.30;;
15982;SDS011;14442;50.196;8.096;2023-04-01T01:03:37;1.13;;;1.13;;
15982;SDS011;14442;50.196;8.096;2023-04-01T01:06:07;1.53;;;1.10;;
15982;SDS011;14442;50.196;8.096;2023-04-01T01:08:42;1.10;;;1.00;;
15982;SDS011;14442;50.196;8.096;2023-04-01T01:11:33;1.30;;;1.20;;
15982;SDS011;14442;50.196;8.096;2023-04-01T01:14:06;1.30;;;0.83;;
15982;SDS011;14442;50.196;8.096;2023-04-01T01:16:39;1.03;;;1.00;;
15982;SDS011;14442;50.196;8.096;2023-04-01T01:19:12;1.00;;;0.80;;
15982;SDS011;14442;50.196;8.096;2023-04-01T01:22:04;0.90;;;0.90;;
15982;SDS011;14442;50.196;8.096;2023-04-01T01:24:44;0.70;;;0.70;;
15982;SDS011;14442;50.196;8.096;2023-04-01T01:27:21;1.07;;;0.70;;
15982;SDS011;14442;50.196;8.096;2023-04-01T01:32:59;1.37;;;0.70;;
15982;SDS011;14442;50.196;8.096;2023-04-01T01:35:41;0.63;;;0.60;;
15982;SDS011;14442;50.196;8.096;2023-04-01T01:38:12;1.03;;;0.70;;
15982;SDS011;14442;50.196;8.096;2023-04-01T01:40:43;0.93;;;0.53;;
15982;SDS011;14442;50.196;8.096;2023-04-01T01:43:12;0.63;;;0.60;;
15982;SDS011;14442;50.196;8.096;2023-04-01T01:45:43;0.80;;;0.70;;
15982;SDS011;14442;50.196;8.096;2023-04-01T01:48:12;0.57;;;0.57;;
15982;SDS011;14442;50.196;8.096;2023-04-01T01:50:42;0.50;;;0.50;;
15982;SDS011;14442;50.196;8.096;2023-04-01T01:53:12;0.77;;;0.40;;
15982;SDS011;14442;50.196;8.096;2023-04-01T01:55:40;0.77;;;0.60;;
15982;SDS011;14442;50.196;8.096;2023-04-01T01:58:09;0.80;;;0.50;;
15982;SDS011;14442;50.196;8.096;2023-04-01T02:00:40;0.60;;;0.50;;
15982;SDS011;14442;50.196;8.096;2023-04-01T02:03:10;0.63;;;0.40;;
15982;SDS011;14442;50.196;8.096;2023-04-01T02:05:38;0.40;;;0.40;;
15982;SDS011;14442;50.196;8.096;2023-04-01T02:08:08;1.27;;;0.50;;
15982;SDS011;14442;50.196;8.096;2023-04-01T02:10:39;0.80;;;0.40;;
15982;SDS011;14442;50.196;8.096;2023-04-01T02:13:10;0.70;;;0.40;;
15982;SDS011;14442;50.196;8.096;2023-04-01T02:15:45;0.40;;;0.40;;
15982;SDS011;14442;50.196;8.096;2023-04-01T02:18:15;0.50;;;0.37;;
15982;SDS011;14442;50.196;8.096;2023-04-01T02:20:44;0.40;;;0.40;;
15982;SDS011;14442;50.196;8.096;2023-04-01T02:23:12;0.43;;;0.37;;
15982;SDS011;14442;50.196;8.096;2023-04-01T02:25:40;0.40;;;0.30;;
15982;SDS011;14442;50.196;8.096;2023-04-01T02:28:09;0.60;;;0.27;;
15982;SDS011;14442;50.196;8.096;2023-04-01T02:30:38;0.80;;;0.40;;
15982;SDS011;14442;50.196;8.096;2023-04-01T02:33:07;0.30;;;0.30;;
15982;SDS011;14442;50.196;8.096;2023-04-01T02:35:35;0.57;;;0.27;;
15982;SDS011;14442;50.196;8.096;2023-04-01T02:38:02;0.27;;;0.27;;
15982;SDS011;14442;50.196;8.096;2023-04-01T02:40:41;0.30;;;0.30;;
15982;SDS011;14442;50.196;8.096;2023-04-01T02:43:09;0.33;;;0.20;;
15982;SDS011;14442;50.196;8.096;2023-04-01T02:45:36;0.77;;;0.33;;
15982;SDS011;14442;50.196;8.096;2023-04-01T02:48:03;0.20;;;0.20;;
15982;SDS011;14442;50.196;8.096;2023-04-01T02:50:30;0.50;;;0.30;;
15982;SDS011;14442;50.196;8.096;2023-04-01T02:52:57;1.43;;;0.30;;
15982;SDS011;14442;50.196;8.096;2023-04-01T02:55:24;0.30;;;0.20;;
15982;SDS011;14442;50.196;8.096;2023-04-01T02:57:52;1.40;;;0.40;;
15982;SDS011;14442;50.196;8.096;2023-04-01T03:00:18;0.57;;;0.30;;
15982;SDS011;14442;50.196;8.096;2023-04-01T03:02:45;0.40;;;0.30;;
15982;SDS011;14442;50.196;8.096;2023-04-01T03:05:12;0.57;;;0.30;;
15982;SDS011;14442;50.196;8.096;2023-04-01T03:07:38;0.77;;;0.30;;
15982;SDS011;14442;50.196;8.096;2023-04-01T03:10:05;0.20;;;0.20;;
15982;SDS011;14442;50.196;8.096;2023-04-01T03:12:33;0.27;;;0.20;;
15982;SDS011;14442;50.196;8.096;2023-04-01T03:15:01;0.23;;;0.20;;
15982;SDS011;14442;50.196;8.096;2023-04-01T03:17:28;0.50;;;0.20;;
15982;SDS011;14442;50.196;8.096;2023-04-01T03:19:54;0.30;;;0.20;;
15982;SDS011;14442;50.196;8.096;2023-04-01T03:22:21;0.33;;;0.23;;
15982;SDS011;14442;50.196;8.096;2023-04-01T03:24:48;0.50;;;0.30;;
15982;SDS011;14442;50.196;8.096;2023-04-01T03:27:15;0.47;;;0.20;;
15982;SDS011;14442;50.196;8.096;2023-04-01T03:29:42;0.40;;;0.20;;
15982;SDS011;14442;50.196;8.096;2023-04-01T03:32:10;0.50;;;0.40;;
15982;SDS011;14442;50.196;8.096;2023-04-01T03:34:36;0.60;;;0.20;;
15982;SDS011;14442;50.196;8.096;2023-04-01T03:37:03;0.40;;;0.23;;
15982;SDS011;14442;50.196;8.096;2023-04-01T03:39:30;0.20;;;0.20;;
15982;SDS011;14442;50.196;8.096;2023-04-01T03:41:57;0.60;;;0.40;;
15982;SDS011;14442;50.196;8.096;2023-04-01T03:44:24;0.40;;;0.20;;
15982;SDS011;14442;50.196;8.096;2023-04-01T03:46:51;0.83;;;0.40;;
15982;SDS011;14442;50.196;8.096;2023-04-01T03:49:19;0.50;;;0.20;;
15982;SDS011;14442;50.196;8.096;2023-04-01T03:51:46;0.33;;;0.20;;
15982;SDS011;14442;50.196;8.096;2023-04-01T03:54:12;0.33;;;0.20;;
15982;SDS011;14442;50.196;8.096;2023-04-01T03:56:39;0.33;;;0.20;;
15982;SDS011;14442;50.196;8.096;2023-04-01T03:59:06;0.30;;;0.30;;
15982;SDS011;14442;50.196;8.096;2023-04-01T04:01:34;0.77;;;0.20;;
15982;SDS011;14442;50.196;8.096;2023-04-01T04:04:01;0.40;;;0.10;;
15982;SDS011;14442;50.196;8.096;2023-04-01T04:06:29;0.47;;;0.40;;
15982;SDS011;14442;50.196;8.096;2023-04-01T04:08:56;0.30;;;0.20;;
15982;SDS011;14442;50.196;8.096;2023-04-01T04:11:22;1.10;;;0.30;;
15982;SDS011;14442;50.196;8.096;2023-04-01T04:13:49;0.63;;;0.20;;
15982;SDS011;14442;50.196;8.096;2023-04-01T04:16:17;0.30;;;0.20;;
15982;SDS011;14442;50.196;8.096;2023-04-01T04:18:44;0.40;;;0.20;;
15982;SDS011;14442;50.196;8.096;2023-04-01T04:21:11;0.40;;;0.20;;
15982;SDS011;14442;50.196;8.096;2023-04-01T04:23:40;0.20;;;0.20;;
15982;SDS011;14442;50.196;8.096;2023-04-01T04:26:08;0.70;;;0.30;;
15982;SDS011;14442;50.196;8.096;2023-04-01T04:28:35;0.53;;;0.10;;
15982;SDS011;14442;50.196;8.096;2023-04-01T04:31:02;0.40;;;0.20;;
15982;SDS011;14442;50.196;8.096;2023-04-01T04:33:30;0.20;;;0.20;;
15982;SDS011;14442;50.196;8.096;2023-04-01T04:35:57;0.50;;;0.10;;
15982;SDS011;14442;50.196;8.096;2023-04-01T04:38:25;0.43;;;0.10;;
15982;SDS011;14442;50.196;8.096;2023-04-01T04:40:53;0.33;;;0.20;;
15982;SDS011;14442;50.196;8.096;2023-04-01T04:43:20;0.10;;;0.10;;
15982;SDS011;14442;50.196;8.096;2023-04-01T04:45:47;0.40;;;0.10;;
15982;SDS011;14442;50.196;8.096;2023-04-01T04:48:14;2.00;;;0.10;;
15982;SDS011;14442;50.196;8.096;2023-04-01T04:50:43;0.20;;;0.20;;
15982;SDS011;14442;50.196;8.096;2023-04-01T04:53:11;1.43;;;0.20;;
15982;SDS011;14442;50.196;8.096;2023-04-01T04:55:42;0.37;;;0.10;;
15982;SDS011;14442;50.196;8.096;2023-04-01T04:58:10;0.87;;;0.20;;
15982;SDS011;14442;50.196;8.096;2023-04-01T05:00:37;0.30;;;0.20;;
15982;SDS011;14442;50.196;8.096;2023-04-01T05:03:04;1.17;;;0.10;;
15982;SDS011;14442;50.196;8.096;2023-04-01T05:05:30;0.70;;;0.23;;
15982;SDS011;14442;50.196;8.096;2023-04-01T05:07:57;1.60;;;0.30;;
15982;SDS011;14442;50.196;8.096;2023-04-01T05:10:24;0.93;;;0.27;;
15982;SDS011;14442;50.196;8.096;2023-04-01T05:12:50;1.10;;;0.10;;
15982;SDS011;14442;50.196;8.096;2023-04-01T05:15:18;0.10;;;0.10;;
15982;SDS011;14442;50.196;8.096;2023-04-01T05:17:45;1.47;;;0.20;;
15982;SDS011;14442;50.196;8.096;2023-04-01T05:20:12;1.63;;;0.10;;
15982;SDS011;14442;50.196;8.096;2023-04-01T05:22:39;1.27;;;0.27;;
15982;SDS011;14442;50.196;8.096;2023-04-01T05:25:06;0.10;;;0.10;;
15982;SDS011;14442;50.196;8.096;2023-04-01T05:27:33;1.03;;;0.20;;
15982;SDS011;14442;50.196;8.096;2023-04-01T05:30:00;1.30;;;0.20;;
15982;SDS011;14442;50.196;8.096;2023-04-01T05:32:28;0.10;;;0.10;;
15982;SDS011;14442;50.196;8.096;2023-04-01T05:34:57;1.07;;;0.10;;
15982;SDS011;14442;50.196;8.096;2023-04-01T05:37:23;0.37;;;0.20;;
15982;SDS011;14442;50.196;8.096;2023-04-01T05:39:50;0.30;;;0.10;;
15982;SDS011;14442;50.196;8.096;2023-04-01T05:42:16;0.23;;;0.10;;
15982;SDS011;14442;50.196;8.096;2023-04-01T05:44:43;0.17;;;0.10;;
15982;SDS011;14442;50.196;8.096;2023-04-01T05:47:10;0.80;;;0.30;;
15982;SDS011;14442;50.196;8.096;2023-04-01T05:49:38;0.40;;;0.10;;
15982;SDS011;14442;50.196;8.096;2023-04-01T05:52:04;0.10;;;0.10;;
15982;SDS011;14442;50.196;8.096;2023-04-01T05:54:31;0.33;;;0.10;;
15982;SDS011;14442;50.196;8.096;2023-04-01T05:56:58;1.57;;;0.13;;
15982;SDS011;14442;50.196;8.096;2023-04-01T05:59:25;1.57;;;0.10;;
15982;SDS011;14442;50.196;8.096;2023-04-01T06:01:52;0.23;;;0.10;;
15982;SDS011;14442;50.196;8.096;2023-04-01T06:04:19;0.50;;;0.10;;
15982;SDS011;14442;50.196;8.096;2023-04-01T06:06:47;0.20;;;0.00;;
15982;SDS011;14442;50.196;8.096;2023-04-01T06:09:14;0.53;;;0.23;;
15982;SDS011;14442;50.196;8.096;2023-04-01T06:11:46;0.10;;;0.10;;
15982;SDS011;14442;50.196;8.096;2023-04-01T06:14:34;0.60;;;0.17;;
15982;SDS011;14442;50.196;8.096;2023-04-01T06:17:15;0.20;;;0.10;;
15982;SDS011;14442;50.196;8.096;2023-04-01T06:19:51;1.13;;;0.20;;
15982;SDS011;14442;50.196;8.096;2023-04-01T06:22:29;1.70;;;0.10;;
15982;SDS011;14442;50.196;8.096;2023-04-01T06:25:18;2.20;;;0.20;;
15982;SDS011;14442;50.196;8.096;2023-04-01T06:28:07;4.60;;;0.63;;
15982;SDS011;14442;50.196;8.096;2023-04-01T06:31:05;3.07;;;1.90;;
15982;SDS011;14442;50.196;8.096;2023-04-01T06:33:48;1.93;;;1.43;;
15982;SDS011;14442;50.196;8.096;2023-04-01T06:36:25;3.37;;;1.40;;
15982;SDS011;14442;50.196;8.096;2023-04-01T06:44:48;2.87;;;1.50;;
15982;SDS011;14442;50.196;8.096;2023-04-01T06:47:23;4.10;;;0.93;;
15982;SDS011;14442;50.196;8.096;2023-04-01T06:49:59;3.93;;;1.10;;
15982;SDS011;14442;50.196;8.096;2023-04-01T06:52:35;2.87;;;1.13;;
15982;SDS011;14442;50.196;8.096;2023-04-01T06:55:23;3.93;;;0.80;;
15982;SDS011;14442;50.196;8.096;2023-04-01T06:57:54;2.40;;;0.50;;
15982;SDS011;14442;50.196;8.096;2023-04-01T07:00:25;1.67;;;0.50;;
15982;SDS011;14442;50.196;8.096;2023-04-01T07:02:56;1.37;;;0.50;;
15982;SDS011;14442;50.196;8.096;2023-04-01T07:05:31;1.20;;;0.50;;
15982;SDS011;14442;50.196;8.096;2023-04-01T07:07:59;0.70;;;0.43;;
15982;SDS011;14442;50.196;8.096;2023-04-01T07:10:31;0.63;;;0.30;;
15982;SDS011;14442;50.196;8.096;2023-04-01T07:13:02;3.30;;;0.53;;
15982;SDS011;14442;50.196;8.096;2023-04-01T07:15:36;2.57;;;0.60;;
15982;SDS011;14442;50.196;8.096;2023-04-01T07:18:07;0.83;;;0.50;;
15982;SDS011;14442;50.196;8.096;2023-04-01T07:20:38;1.83;;;0.40;;
15982;SDS011;14442;50.196;8.096;2023-04-01T07:23:06;3.40;;;0.53;;
15982;SDS011;14442;50.196;8.096;2023-04-01T07:25:41;1.67;;;0.40;;
15982;SDS011;14442;50.196;8.096;2023-04-01T07:28:12;3.07;;;0.50;;
15982;SDS011;14442;50.196;8.096;2023-04-01T07:30:44;0.93;;;0.47;;
15982;SDS011;14442;50.196;8.096;2023-04-01T07:33:19;1.80;;;0.47;;
15982;SDS011;14442;50.196;8.096;2023-04-01T07:35:54;1.10;;;0.30;;
15982;SDS011;14442;50.196;8.096;2023-04-01T07:38:26;1.07;;;0.40;;
15982;SDS011;14442;50.196;8.096;2023-04-01T07:41:03;2.43;;;0.50;;
15982;SDS011;14442;50.196;8.096;2023-04-01T07:43:44;0.43;;;0.20;;
15982;SDS011;14442;50.196;8.096;2023-04-01T07:46:23;4.20;;;0.60;;
15982;SDS011;14442;50.196;8.096;2023-04-01T07:49:06;2.50;;;0.57;;
15982;SDS011;14442;50.196;8.096;2023-04-01T07:51:41;4.37;;;0.60;;
15982;SDS011;14442;50.196;8.096;2023-04-01T07:54:17;2.13;;;0.50;;
15982;SDS011;14442;50.196;8.096;2023-04-01T07:56:51;2.87;;;0.30;;
15982;SDS011;14442;50.196;8.096;2023-04-01T07:59:24;3.70;;;0.33;;
15982;SDS011;14442;50.196;8.096;2023-04-01T08:01:59;2.40;;;0.30;;
15982;SDS011;14442;50.196;8.096;2023-04-01T08:04:38;3.17;;;0.60;;
15982;SDS011;14442;50.196;8.096;2023-04-01T08:07:17;3.17;;;0.43;;
15982;SDS011;14442;50.196;8.096;2023-04-01T08:09:50;1.90;;;0.30;;
15982;SDS011;14442;50.196;8.096;2023-04-01T08:12:25;4.60;;;0.50;;
15982;SDS011;14442;50.196;8.096;2023-04-01T08:15:05;2.80;;;0.37;;
15982;SDS011;14442;50.196;8.096;2023-04-01T08:17:40;1.93;;;0.60;;
15982;SDS011;14442;50.196;8.096;2023-04-01T08:20:18;0.73;;;0.20;;
15982;SDS011;14442;50.196;8.096;2023-04-01T08:22:52;2.50;;;0.30;;
15982;SDS011;14442;50.196;8.096;2023-04-01T08:25:25;0.40;;;0.30;;
15982;SDS011;14442;50.196;8.096;2023-04-01T08:27:56;2.70;;;0.30;;
15982;SDS011;14442;50.196;8.096;2023-04-01T08:30:32;0.93;;;0.30;;
15982;SDS011;14442;50.196;8.096;2023-04-01T08:33:05;4.93;;;0.40;;
15982;SDS011;14442;50.196;8.096;2023-04-01T08:35:39;2.50;;;0.30;;
15982;SDS011;14442;50.196;8.096;2023-04-01T08:38:10;2.27;;;0.20;;
15982;SDS011;14442;50.196;8.096;2023-04-01T08:40:46;0.40;;;0.20;;
15982;SDS011;14442;50.196;8.096;2023-04-01T08:43:30;1.03;;;0.57;;
15982;SDS011;14442;50.196;8.096;2023-04-01T08:46:26;1.03;;;0.20;;
15982;SDS011;14442;50.196;8.096;2023-04-01T08:49:09;0.83;;;0.13;;
15982;SDS011;14442;50.196;8.096;2023-04-01T08:51:50;1.90;;;0.50;;
15982;SDS011;14442;50.196;8.096;2023-04-01T08:54:34;1.03;;;0.53;;
15982;SDS011;14442;50.196;8.096;2023-04-01T08:57:18;2.27;;;0.20;;
15982;SDS011;14442;50.196;8.096;2023-04-01T09:00:00;0.60;;;0.20;;
15982;SDS011;14442;50.196;8.096;2023-04-01T09:02:46;0.20;;;0.10;;
15982;SDS011;14442;50.196;8.096;2023-04-01T09:05:34;0.40;;;0.20;;
15982;SDS011;14442;50.196;8.096;2023-04-01T09:08:17;1.30;;;0.10;;
15982;SDS011;14442;50.196;8.096;2023-04-01T09:11:03;0.70;;;0.30;;
15982;SDS011;14442;50.196;8.096;2023-04-01T09:16:49;1.17;;;0.20;;
15982;SDS011;14442;50.196;8.096;2023-04-01T09:19:33;0.27;;;0.20;;
15982;SDS011;14442;50.196;8.096;2023-04-01T09:22:22;2.90;;;0.20;;
15982;SDS011;14442;50.196;8.096;2023-04-01T09:25:15;0.20;;;0.20;;
15982;SDS011;14442;50.196;8.096;2023-04-01T09:28:12;0.57;;;0.10;;
15982;SDS011;14442;50.196;8.096;2023-04-01T09:33:51;0.10;;;0.10;;
15982;SDS011;14442;50.196;8.096;2023-04-01T09:36:38;0.10;;;0.10;;
15982;SDS011;14442;50.196;8.096;2023-04-01T09:42:07;0.83;;;0.20;;
15982;SDS011;14442;50.196;8.096;2023-04-01T09:44:52;0.43;;;0.17;;
15982;SDS011;14442;50.196;8.096;2023-04-01T09:47:27;0.10;;;0.10;;
15982;SDS011;14442;50.196;8.096;2023-04-01T09:50:23;0.10;;;0.10;;
15982;SDS011;14442;50.196;8.096;2023-04-01T09:53:00;0.23;;;0.10;;
15982;SDS011;14442;50.196;8.096;2023-04-01T09:55:56;0.50;;;0.10;;
15982;SDS011;14442;50.196;8.096;2023-04-01T09:58:48;0.10;;;0.00;;
15982;SDS011;14442;50.196;8.096;2023-04-01T10:02:09;0.27;;;0.17;;
15982;SDS011;14442;50.196;8.096;2023-04-01T10:05:04;0.10;;;0.10;;
15982;SDS011;14442;50.196;8.096;2023-04-01T10:08:04;0.50;;;0.20;;
15982;SDS011;14442;50.196;8.096;2023-04-01T10:14:18;0.20;;;0.10;;
15982;SDS011;14442;50.196;8.096;2023-04-01T10:20:08;0.20;;;0.20;;
15982;SDS011;14442;50.196;8.096;2023-04-01T10:23:08;0.77;;;0.10;;
15982;SDS011;14442;50.196;8.096;2023-04-01T10:44:41;0.50;;;0.20;;
15982;SDS011;14442;50.196;8.096;2023-04-01T10:47:39;3.30;;;0.40;;
15982;SDS011;14442;50.196;8.096;2023-04-01T10:50:45;2.53;;;0.30;;
15982;SDS011;14442;50.196;8.096;2023-04-01T10:53:38;2.67;;;0.30;;
15982;SDS011;14442;50.196;8.096;2023-04-01T10:56:33;1.43;;;0.20;;
15982;SDS011;14442;50.196;8.096;2023-04-01T10:59:25;1.03;;;0.30;;
15982;SDS011;14442;50.196;8.096;2023-04-01T11:02:40;2.63;;;0.20;;
15982;SDS011;14442;50.196;8.096;2023-04-01T11:08:54;9.77;;;0.60;;
15982;SDS011;14442;50.196;8.096;2023-04-01T11:12:02;3.53;;;0.50;;
15982;SDS011;14442;50.196;8.096;2023-04-01T11:15:07;3.87;;;0.70;;
15982;SDS011;14442;50.196;8.096;2023-04-01T11:18:02;3.67;;;0.53;;
15982;SDS011;14442;50.196;8.096;2023-04-01T11:21:02;4.00;;;0.70;;
15982;SDS011;14442;50.196;8.096;2023-04-01T11:23:50;4.60;;;0.30;;
15982;SDS011;14442;50.196;8.096;2023-04-01T11:26:26;6.03;;;0.77;;
15982;SDS011;14442;50.196;8.096;2023-04-01T11:29:14;4.40;;;0.60;;
15982;SDS011;14442;50.196;8.096;2023-04-01T11:32:07;3.60;;;0.57;;
15982;SDS011;14442;50.196;8.096;2023-04-01T11:34:52;3.50;;;0.37;;
15982;SDS011;14442;50.196;8.096;2023-04-01T11:37:31;3.87;;;0.60;;
15982;SDS011;14442;50.196;8.096;2023-04-01T11:40:07;4.80;;;0.63;;
15982;SDS011;14442;50.196;8.096;2023-04-01T11:42:45;5.33;;;0.60;;
15982;SDS011;14442;50.196;8.096;2023-04-01T11:45:21;3.00;;;0.93;;
15982;SDS011;14442;50.196;8.096;2023-04-01T11:48:01;4.03;;;0.73;;
15982;SDS011;14442;50.196;8.096;2023-04-01T11:50:44;6.17;;;0.80;;
15982;SDS011;14442;50.196;8.096;2023-04-01T11:53:27;3.13;;;0.50;;
15982;SDS011;14442;50.196;8.096;2023-04-01T11:56:06;5.87;;;0.47;;
15982;SDS011;14442;50.196;8.096;2023-04-01T11:58:46;6.43;;;0.60;;
15982;SDS011;14442;50.196;8.096;2023-04-01T12:01:28;1.30;;;0.40;;
15982;SDS011;14442;50.196;8.096;2023-04-01T12:04:12;4.97;;;0.70;;
15982;SDS011;14442;50.196;8.096;2023-04-01T12:06:54;1.87;;;0.53;;
15982;SDS011;14442;50.196;8.096;2023-04-01T12:09:33;2.30;;;0.40;;
15982;SDS011;14442;50.196;8.096;2023-04-01T12:12:12;3.77;;;0.60;;
15982;SDS011;14442;50.196;8.096;2023-04-01T12:14:48;3.30;;;0.50;;
15982;SDS011;14442;50.196;8.096;2023-04-01T12:17:27;2.50;;;0.50;;
15982;SDS011;14442;50.196;8.096;2023-04-01T12:20:01;2.10;;;0.50;;
15982;SDS011;14442;50.196;8.096;2023-04-01T12:22:49;2.73;;;0.40;;
15982;SDS011;14442;50.196;8.096;2023-04-01T12:25:27;0.60;;;0.30;;
15982;SDS011;14442;50.196;8.096;2023-04-01T12:28:05;3.83;;;0.30;;
15982;SDS011;14442;50.196;8.096;2023-04-01T12:30:46;1.10;;;0.30;;
15982;SDS011;14442;50.196;8.096;2023-04-01T12:33:26;1.33;;;0.30;;
15982;SDS011;14442;50.196;8.096;2023-04-01T12:36:10;1.60;;;0.40;;
15982;SDS011;14442;50.196;8.096;2023-04-01T12:38:48;1.73;;;0.20;;
15982;SDS011;14442;50.196;8.096;2023-04-01T12:41:27;1.40;;;0.30;;
15982;SDS011;14442;50.196;8.096;2023-04-01T12:44:04;1.60;;;0.30;;
15982;SDS011;14442;50.196;8.096;2023-04-01T12:46:56;2.40;;;0.30;;
15982;SDS011;14442;50.196;8.096;2023-04-01T12:49:39;1.80;;;0.30;;
15982;SDS011;14442;50.196;8.096;2023-04-01T12:52:31;1.97;;;0.30;;
15982;SDS011;14442;50.196;8.096;2023-04-01T12:58:15;0.10;;;0.10;;
15982;SDS011;14442;50.196;8.096;2023-04-01T13:01:03;0.77;;;0.13;;
15982;SDS011;14442;50.196;8.096;2023-04-01T13:03:48;0.53;;;0.20;;
15982;SDS011;14442;50.196;8.096;2023-04-01T13:06:32;0.20;;;0.10;;
15982;SDS011;14442;50.196;8.096;2023-04-01T13:09:13;2.10;;;0.20;;
15982;SDS011;14442;50.196;8.096;2023-04-01T13:11:54;0.20;;;0.20;;
15982;SDS011;14442;50.196;8.096;2023-04-01T13:14:40;0.60;;;0.20;;
15982;SDS011;14442;50.196;8.096;2023-04-01T13:17:33;0.53;;;0.30;;
15982;SDS011;14442;50.196;8.096;2023-04-01T13:20:11;0.50;;;0.20;;
15982;SDS011;14442;50.196;8.096;2023-04-01T13:22:48;1.90;;;0.20;;
15982;SDS011;14442;50.196;8.096;2023-04-01T13:25:24;0.13;;;0.13;;
15982;SDS011;14442;50.196;8.096;2023-04-01T13:28:01;0.50;;;0.20;;
15982;SDS011;14442;50.196;8.096;2023-04-01T13:30:36;0.20;;;0.10;;
15982;SDS011;14442;50.196;8.096;2023-04-01T13:33:12;0.40;;;0.33;;
15982;SDS011;14442;50.196;8.096;2023-04-01T13:35:43;0.63;;;0.50;;
15982;SDS011;14442;50.196;8.096;2023-04-01T13:38:32;1.50;;;0.10;;
15982;SDS011;14442;50.196;8.096;2023-04-01T13:41:16;0.20;;;0.20;;
15982;SDS011;14442;50.196;8.096;2023-04-01T13:43:50;2.07;;;0.30;;
15982;SDS011;14442;50.196;8.096;2023-04-01T13:49:24;1.07;;;0.13;;
15982;SDS011;14442;50.196;8.096;2023-04-01T13:52:07;0.43;;;0.10;;
15982;SDS011;14442;50.196;8.096;2023-04-01T13:55:07;0.80;;;0.10;;
15982;SDS011;14442;50.196;8.096;2023-04-01T13:58:00;0.20;;;0.10;;
15982;SDS011;14442;50.196;8.096;2023-04-01T14:00:42;0.10;;;0.10;;
15982;SDS011;14442;50.196;8.096;2023-04-01T14:03:42;0.17;;;0.10;;
15982;SDS011;14442;50.196;8.096;2023-04-01T14:06:18;1.07;;;0.20;;
15982;SDS011;14442;50.196;8.096;2023-04-01T14:09:04;0.10;;;0.10;;
15982;SDS011;14442;50.196;8.096;2023-04-01T14:11:44;0.20;;;0.20;;
15982;SDS011;14442;50.196;8.096;2023-04-01T14:14:21;0.20;;;0.20;;
15982;SDS011;14442;50.196;8.096;2023-04-01T14:22:56;0.20;;;0.03;;
15982;SDS011;14442;50.196;8.096;2023-04-01T14:25:41;0.77;;;0.23;;
15982;SDS011;14442;50.196;8.096;2023-04-01T14:28:24;0.30;;;0.20;;
15982;SDS011;14442;50.196;8.096;2023-04-01T14:31:02;0.93;;;0.20;;
15982;SDS011;14442;50.196;8.096;2023-04-01T14:33:43;0.53;;;0.00;;
15982;SDS011;14442;50.196;8.096;2023-04-01T14:39:12;0.23;;;0.13;;
15982;SDS011;14442;50.196;8.096;2023-04-01T14:41:48;0.20;;;0.10;;
15982;SDS011;14442;50.196;8.096;2023-04-01T14:44:33;0.10;;;0.10;;
15982;SDS011;14442;50.196;8.096;2023-04-01T14:47:21;0.20;;;0.20;;
15982;SDS011;14442;50.196;8.096;2023-04-01T14:49:56;0.20;;;0.10;;
15982;SDS011;14442;50.196;8.096;2023-04-01T14:52:31;0.63;;;0.10;;
15982;SDS011;14442;50.196;8.096;2023-04-01T14:55:01;0.17;;;0.17;;
15982;SDS011;14442;50.196;8.096;2023-04-01T14:57:41;0.20;;;0.10;;
15982;SDS011;14442;50.196;8.096;2023-04-01T15:00:13;0.47;;;0.10;;
15982;SDS011;14442;50.196;8.096;2023-04-01T15:02:45;3.30;;;0.20;;
15982;SDS011;14442;50.196;8.096;2023-04-01T15:05:23;0.40;;;0.30;;
15982;SDS011;14442;50.196;8.096;2023-04-01T15:08:01;0.60;;;0.03;;
15982;SDS011;14442;50.196;8.096;2023-04-01T15:10:38;0.13;;;0.13;;
15982;SDS011;14442;50.196;8.096;2023-04-01T15:13:37;0.60;;;0.10;;
15982;SDS011;14442;50.196;8.096;2023-04-01T15:16:17;0.63;;;0.10;;
15982;SDS011;14442;50.196;8.096;2023-04-01T15:18:51;0.23;;;0.23;;
15982;SDS011;14442;50.196;8.096;2023-04-01T15:21:30;0.73;;;0.10;;
15982;SDS011;14442;50.196;8.096;2023-04-01T15:24:08;0.50;;;0.20;;
15982;SDS011;14442;50.196;8.096;2023-04-01T15:29:43;0.10;;;0.10;;
15982;SDS011;14442;50.196;8.096;2023-04-01T15:32:24;0.70;;;0.10;;
15982;SDS011;14442;50.196;8.096;2023-04-01T15:34:59;0.20;;;0.13;;
15982;SDS011;14442;50.196;8.096;2023-04-01T15:37:37;0.30;;;0.10;;
15982;SDS011;14442;50.196;8.096;2023-04-01T15:40:14;0.13;;;0.10;;
15982;SDS011;14442;50.196;8.096;2023-04-01T15:42:49;0.30;;;0.10;;
15982;SDS011;14442;50.196;8.096;2023-04-01T15:45:30;0.10;;;0.07;;
15982;SDS011;14442;50.196;8.096;2023-04-01T15:48:10;0.27;;;0.10;;
15982;SDS011;14442;50.196;8.096;2023-04-01T15:51:01;0.10;;;0.10;;
15982;SDS011;14442;50.196;8.096;2023-04-01T15:53:47;0.10;;;0.10;;
15982;SDS011;14442;50.196;8.096;2023-04-01T15:56:29;0.57;;;0.10;;
15982;SDS011;14442;50.196;8.096;2023-04-01T15:59:12;0.17;;;0.10;;
15982;SDS011;14442;50.196;8.096;2023-04-01T16:01:47;0.10;;;0.10;;
15982;SDS011;14442;50.196;8.096;2023-04-01T16:04:30;1.13;;;0.10;;
15982;SDS011;14442;50.196;8.096;2023-04-01T16:07:10;0.10;;;0.10;;
15982;SDS011;14442;50.196;8.096;2023-04-01T16:09:49;0.10;;;0.10;;
15982;SDS011;14442;50.196;8.096;2023-04-01T16:12:31;0.03;;;0.03;;
15982;SDS011;14442;50.196;8.096;2023-04-01T16:15:10;0.07;;;0.07;;
15982;SDS011;14442;50.196;8.096;2023-04-01T16:17:57;0.10;;;0.10;;
15982;SDS011;14442;50.196;8.096;2023-04-01T16:20:42;0.20;;;0.20;;
15982;SDS011;14442;50.196;8.096;2023-04-01T16:23:13;0.20;;;0.10;;
15982;SDS011;14442;50.196;8.096;2023-04-01T16:25:47;0.30;;;0.03;;
15982;SDS011;14442;50.196;8.096;2023-04-01T16:28:21;0.03;;;0.03;;
15982;SDS011;14442;50.196;8.096;2023-04-01T16:30:55;0.17;;;0.10;;
15982;SDS011;14442;50.196;8.096;2023-04-01T16:33:27;0.10;;;0.10;;
15982;SDS011;14442;50.196;8.096;2023-04-01T16:36:09;0.10;;;0.10;;
15982;SDS011;14442;50.196;8.096;2023-04-01T16:38:40;0.47;;;0.10;;
15982;SDS011;14442;50.196;8.096;2023-04-01T16:41:14;0.10;;;0.10;;
15982;SDS011;14442;50.196;8.096;2023-04-01T16:43:45;0.10;;;0.10;;
15982;SDS011;14442;50.196;8.096;2023-04-01T16:46:20;0.27;;;0.10;;